Latest Weather Observations for Taree Airport

IDN60801

Issued at 6:32 am EST Friday 21 July 2017 (issued every 30 minutes, with the page automatically refreshed every 10 minutes)

About weather observations | Map of weather stations | Latest weather observations for NSW | Other Formats
Station Details ID: 060141 Name: TAREE AIRPORT AWS Lat: -31.89 Lon: 152.51 Height: 8.0 m
Data from the previous 72 hours. | See also: Recent months at Taree Airport
Date/Time
EST
Temp
°C
App
Temp
°C
Dew
Point
°C
Rel
Hum
%
Delta-T
°C
Wind Press
QNH
hPa
Press
MSL
hPa
Rain since
9am
mm
Dir  Spd
km/h
Gust
km/h
Spd
kts
Gust
kts
21/06:30am 7.4 3.4 0.6 62 2.7 W 11 17 6 9 1018.3 1018.3 0.0
21/06:00am 7.1 3.5 0.5 63 2.6 WNW 9 11 5 6 1018.3 1018.3 0.0
21/05:30am 8.1 4.5 0.3 58 3.1 WNW 9 11 5 6 1017.7 1017.7 0.0
21/05:00am 8.5 4.5 0.7 58 3.1 W 11 15 6 8 1017.3 1017.3 0.0
21/04:30am 8.8 4.1 0.8 57 3.2 W 15 20 8 11 1016.8 1016.8 0.0
21/04:00am 8.9 3.9 1.1 58 3.2 W 17 22 9 12 1016.5 1016.5 0.0
21/03:30am 9.2 4.5 0.6 55 3.5 W 15 24 8 13 1016.6 1016.6 0.0
21/03:00am 9.3 4.6 0.7 55 3.5 W 15 20 8 11 1016.4 1016.4 0.0
21/02:30am 9.3 4.9 0.2 53 3.6 W 13 19 7 10 1016.4 1016.4 0.0
21/02:00am 9.4 4.6 0.3 53 3.7 WNW 15 19 8 10 1016.4 1016.4 0.0
21/01:30am 9.5 5.4 0.1 52 3.8 W 11 13 6 7 1016.4 1016.4 0.0
21/01:00am 10.1 6.1 0.4 51 3.9 W 11 15 6 8 1016.5 1016.5 0.0
21/12:30am 11.1 7.0 -0.1 46 4.5 WSW 11 17 6 9 1016.3 1016.3 0.0
21/12:00am 11.6 6.0 0.1 45 4.7 WSW 19 30 10 16 1016.3 1016.3 0.0
 
Date/Time
EST
Temp
°C
App
Temp
°C
Dew
Point
°C
Rel
Hum
%
Delta-T
°C
Wind Press
QNH
hPa
Press
MSL
hPa
Rain since
9am
mm
Dir  Spd
km/h
Gust
km/h
Spd
kts
Gust
kts
20/11:30pm 11.9 7.1 0.1 44 4.8 WSW 15 22 8 12 1016.2 1016.2 0.0
20/11:00pm 12.1 6.9 -0.1 43 5.0 WSW 17 26 9 14 1015.9 1015.9 0.0
20/10:30pm 12.2 6.9 -0.3 42 5.1 WSW 17 26 9 14 1015.5 1015.5 0.0
20/10:00pm 12.6 7.2 -1.0 39 5.5 WSW 17 30 9 16 1015.2 1015.2 0.0
20/09:30pm 11.5 6.9 -1.3 41 5.1 WSW 13 17 7 9 1015.0 1015.0 0.0
20/09:00pm 11.2 7.0 -0.9 43 4.8 WSW 11 15 6 8 1014.9 1014.9 0.0
20/08:30pm 11.0 7.2 -0.5 45 4.6 WSW 9 13 5 7 1014.5 1014.5 0.0
20/08:00pm 12.0 7.9 -0.2 43 5.0 WSW 11 17 6 9 1014.1 1014.1 0.0
20/07:30pm 11.4 7.7 2.2 53 3.9 W 11 13 6 7 1013.7 1013.7 0.0
20/07:00pm 11.2 8.1 3.5 59 3.4 SSW 9 9 5 5 1013.4 1013.4 0.0
20/06:30pm 13.7 9.9 -1.1 36 6.0 WSW 9 11 5 6 1012.9 1012.9 0.0
20/06:00pm 14.7 10.4 -1.8 32 6.7 WSW 11 13 6 7 1012.3 1012.3 0.0
20/05:30pm 15.9 11.2 -1.6 30 7.2 W 13 17 7 9 1011.8 1011.8 0.0
20/05:00pm 16.7 12.1 -0.9 30 7.4 W 13 19 7 10 1011.6 1011.6 0.0
20/04:30pm 17.9 12.4 -1.9 26 8.3 W 17 26 9 14 1011.4 1011.4 0.0
20/04:00pm 18.6 12.8 -1.8 25 8.6 W 19 32 10 17 1011.2 1011.2 0.0
20/03:30pm 19.2 13.6 -0.2 27 8.5 WNW 19 28 10 15 1011.0 1011.0 0.0
20/03:00pm 19.1 13.0 0.7 29 8.2 WNW 22 32 12 17 1010.9 1010.9 0.0
20/02:30pm 19.1 13.0 0.7 29 8.2 WNW 22 35 12 19 1011.1 1011.1 0.0
20/02:00pm 19.0 13.2 0.1 28 8.3 W 20 33 11 18 1011.1 1011.1 0.0
20/01:30pm 18.9 12.9 1.0 30 8.0 W 22 35 12 19 1011.2 1011.2 0.0
20/01:00pm 18.4 12.7 0.5 30 7.9 W 20 33 11 18 1011.5 1011.5 0.0
20/12:30pm 17.8 11.5 1.7 34 7.2 W 24 33 13 18 1012.0 1012.0 0.0
20/12:00pm 17.3 11.3 0.9 33 7.2 W 22 33 12 18 1012.5 1012.5 0.0
20/11:30am 17.1 10.9 1.9 36 6.8 W 24 37 13 20 1013.1 1013.1 0.0
20/11:00am 16.5 10.3 2.2 38 6.4 W 24 35 13 19 1013.7 1013.7 0.0
20/10:30am 16.5 10.8 2.9 40 6.2 W 22 35 12 19 1013.8 1013.8 0.0
20/10:00am 15.8 10.6 2.2 40 6.1 W 19 30 10 16 1013.8 1013.8 0.0
20/09:30am 15.4 10.3 3.9 46 5.3 W 20 30 11 16 1013.9 1013.9 0.0
20/09:00am 14.5 10.9 4.8 52 4.5 W 13 19 7 10 1013.7 1013.7 0.0
20/08:30am 13.1 10.2 4.8 57 3.8 W 9 11 5 6 1013.6 1013.6 0.0
20/08:00am 11.9 9.4 4.9 62 3.2 W 7 9 4 5 1013.5 1013.5 0.0
20/07:30am 10.6 7.2 4.1 64 2.9 WNW 11 13 6 7 1013.5 1013.5 0.0
20/07:00am 10.5 6.8 4.2 65 2.8 WNW 13 15 7 8 1013.6 1013.6 0.0
20/06:30am 10.3 6.6 4.2 66 2.7 WNW 13 15 7 8 1013.5 1013.5 0.0
20/06:00am 10.4 6.7 4.3 66 2.7 W 13 17 7 9 1013.3 1013.3 0.0
20/05:30am 11.0 7.3 4.5 64 2.9 W 13 17 7 9 1012.8 1012.8 0.0
20/05:00am 11.6 7.5 4.6 62 3.2 WSW 15 20 8 11 1012.6 1012.6 0.0
20/04:30am 10.5 7.2 4.4 66 2.7 WSW 11 15 6 8 1012.4 1012.4 0.0
20/04:00am 10.3 6.5 4.0 65 2.8 WSW 13 17 7 9 1012.3 1012.3 0.0
20/03:30am 10.4 7.0 4.1 65 2.8 WSW 11 17 6 9 1012.2 1012.2 0.0
20/03:00am 11.0 7.3 4.2 63 3.0 W 13 17 7 9 1011.8 1011.8 0.0
20/02:30am 11.5 7.3 4.0 60 3.3 W 15 20 8 11 1011.2 1011.2 0.0
20/02:00am 11.4 7.6 3.9 60 3.3 W 13 17 7 9 1010.9 1010.9 0.0
20/01:30am 11.0 7.5 3.5 60 3.3 WNW 11 15 6 8 1011.2 1011.2 0.0
20/01:00am 11.5 7.7 3.8 59 3.4 WNW 13 20 7 11 1010.8 1010.8 0.0
20/12:30am 11.5 7.6 3.5 58 3.5 W 13 15 7 8 1010.6 1010.6 0.0
20/12:00am 12.0 7.4 3.5 56 3.8 W 17 22 9 12 1010.8 1010.8 0.0
 
Date/Time
EST
Temp
°C
App
Temp
°C
Dew
Point
°C
Rel
Hum
%
Delta-T
°C
Wind Press
QNH
hPa
Press
MSL
hPa
Rain since
9am
mm
Dir  Spd
km/h
Gust
km/h
Spd
kts
Gust
kts
19/11:30pm 12.3 8.0 3.3 54 4.0 W 15 19 8 10 1010.8 1010.8 0.0
19/11:00pm 12.1 8.1 3.1 54 4.0 W 13 19 7 10 1010.8 1010.8 0.0
19/10:30pm 12.3 8.3 3.0 53 4.1 WNW 13 19 7 10 1011.2 1011.2 0.0
19/10:00pm 12.6 8.2 2.7 51 4.3 W 15 19 8 10 1010.9 1010.9 0.0
19/09:30pm 12.9 8.9 3.0 51 4.4 W 13 19 7 10 1010.8 1010.8 0.0
19/09:00pm 12.9 8.6 3.0 51 4.4 WSW 15 26 8 14 1010.8 1010.8 0.0
19/08:30pm 13.2 8.5 3.3 51 4.4 W 17 26 9 14 1010.8 1010.8 0.0
19/08:00pm 13.3 9.0 3.1 50 4.5 W 15 22 8 12 1010.4 1010.4 0.0
19/07:30pm 13.4 8.7 3.2 50 4.5 W 17 26 9 14 1009.8 1009.8 0.0
19/07:00pm 13.7 9.3 2.6 47 4.9 W 15 22 8 12 1009.5 1009.5 0.0
19/06:30pm 13.9 9.8 2.5 46 5.0 WNW 13 19 7 10 1009.1 1009.1 0.0
19/06:00pm 14.1 9.6 2.4 45 5.2 W 15 22 8 12 1008.7 1008.7 0.0
19/05:30pm 14.3 9.4 1.9 43 5.4 W 17 22 9 12 1008.2 1008.2 0.0
19/05:00pm 14.6 9.7 1.8 42 5.6 W 17 26 9 14 1007.8 1007.8 0.0
19/04:30pm 15.5 10.0 1.6 39 6.1 W 20 33 11 18 1007.3 1007.3 0.0
19/04:00pm 15.4 9.5 1.9 40 6.0 W 22 33 12 18 1007.0 1007.0 0.0
19/03:30pm 16.5 9.4 1.4 36 6.7 W 28 46 15 25 1006.8 1006.8 0.0
19/03:24pm 16.7 9.6 1.6 36 6.7 W 28 46 15 25 1006.7 1006.7 0.0
19/03:00pm 16.4 10.0 0.9 35 6.8 WSW 24 39 13 21 1006.4 1006.4 0.0
19/02:30pm 16.1 9.8 1.4 37 6.5 WSW 24 37 13 20 1005.8 1005.8 0.0
19/02:00pm 16.8 9.9 2.8 39 6.4 W 28 52 15 28 1005.5 1005.5 0.0
19/01:56pm 16.6 9.6 2.2 38 6.5 W 28 52 15 28 1005.5 1005.5 0.0
19/01:30pm 16.1 8.8 2.2 39 6.2 WSW 30 39 16 21 1005.6 1005.6 0.0
19/01:00pm 16.3 8.7 2.7 40 6.2 W 32 54 17 29 1005.7 1005.7 0.0
19/12:33pm 16.4 8.7 2.1 38 6.4 WNW 32 54 17 29 1006.0 1006.0 0.0
19/12:30pm 16.6 9.0 2.6 39 6.3 WNW 32 43 17 23 1006.0 1006.0 0.0
19/12:08pm 16.6 9.6 2.2 38 6.5 W 28 46 15 25 1006.3 1006.3 0.0
19/12:00pm 16.6 9.3 2.2 38 6.5 W 30 46 16 25 1006.5 1006.5 0.0
19/11:48am 15.9 8.5 1.6 38 6.3 W 30 48 16 26 1006.7 1006.7 0.0
19/11:30am 16.3 8.6 2.3 39 6.3 W 32 44 17 24 1007.0 1007.0 0.0
19/11:00am 15.9 8.1 2.0 39 6.2 W 32 61 17 33 1007.4 1007.4 0.0
19/10:40am 15.8 8.5 2.2 40 6.1 W 30 48 16 26 1007.6 1007.6 0.0
19/10:30am 15.6 8.3 2.7 42 5.8 W 30 43 16 23 1007.7 1007.7 0.0
19/10:00am 15.3 10.2 2.8 43 5.6 WNW 19 28 10 15 1008.0 1008.0 0.0
19/09:30am 14.1 10.3 4.1 51 4.6 WNW 13 17 7 9 1008.5 1008.5 0.0
19/09:00am 13.5 11.0 4.9 56 4.0 WNW 7 9 4 5 1008.9 1008.9 0.4
19/08:30am 11.7 10.7 7.4 75 2.1 NW 2 7 1 4 1009.1 1009.1 0.4
19/08:00am 8.7 7.9 6.7 87 0.9 CALM 0 0 0 0 1009.1 1009.1 0.4
19/07:30am 6.4 4.5 5.0 91 0.6 S 4 6 2 3 1009.0 1009.0 0.4
19/07:00am 5.0 2.4 3.2 88 0.7 NW 6 7 3 4 1008.7 1008.7 0.4
19/06:30am 5.3 3.4 3.0 85 0.9 NNW 2 7 1 4 1008.7 1008.7 0.4
19/06:00am 6.6 5.6 5.4 92 0.5 CALM 0 0 0 0 1008.5 1008.5 0.2
19/05:30am 6.9 4.8 5.7 92 0.5 N 6 9 3 5 1008.2 1008.2 0.2
19/05:00am 7.5 5.4 6.6 94 0.4 SSE 7 7 4 4 1008.1 1008.1 0.2
19/04:30am 6.1 4.7 5.4 95 0.3 NNE 2 7 1 4 1007.9 1007.9 0.2
19/04:00am 7.1 6.2 6.0 93 0.5 CALM 0 0 0 0 1007.6 1007.6 0.2
19/03:30am 7.7 6.8 6.0 89 0.8 CALM 0 0 0 0 1007.7 1007.7 0.2
19/03:00am 8.0 7.2 6.5 90 0.7 CALM 0 6 0 3 1007.9 1007.9 0.2
19/02:30am 9.4 8.1 7.8 90 0.8 NNW 4 11 2 6 1008.3 1008.3 0.2
19/02:00am 8.2 6.6 6.2 87 0.9 NNE 4 11 2 6 1008.4 1008.4 0.2
19/01:30am 10.6 8.1 8.4 86 1.1 SW 11 13 6 7 1008.4 1008.4 0.2
19/01:00am 9.5 7.6 7.4 87 1.0 SSE 7 9 4 5 1008.3 1008.3 0.2
19/12:30am 13.0 11.1 7.5 69 2.7 W 7 11 4 6 1008.2 1008.2 0.2
19/12:00am 12.7 10.9 8.0 73 2.3 WSW 7 9 4 5 1008.5 1008.5 0.2
 
Date/Time
EST
Temp
°C
App
Temp
°C
Dew
Point
°C
Rel
Hum
%
Delta-T
°C
Wind Press
QNH
hPa
Press
MSL
hPa
Rain since
9am
mm
Dir  Spd
km/h
Gust
km/h
Spd
kts
Gust
kts
18/11:30pm 13.1 11.6 8.4 73 2.3 NNW 6 7 3 4 1008.9 1008.9 0.2
18/11:00pm 15.1 12.8 7.4 60 3.8 NNW 9 11 5 6 1009.0 1009.0 0.2
18/10:30pm 15.1 13.2 7.4 60 3.8 NNW 7 11 4 6 1009.3 1009.3 0.2
18/10:00pm 16.2 13.6 7.7 57 4.3 NW 11 13 6 7 1009.6 1009.6 0.2
18/09:30pm 17.1 14.1 7.7 54 4.7 WNW 13 17 7 9 1009.7 1009.7 0.2
18/09:00pm 17.7 14.3 7.7 52 5.1 WNW 15 24 8 13 1009.8 1009.8 0.2
18/08:30pm 18.5 13.4 7.6 49 5.5 NW 24 35 13 19 1009.9 1009.9 0.2
18/08:00pm 17.5 11.5 8.6 56 4.6 WNW 30 41 16 22 1010.3 1010.3 0.2
18/07:30pm 16.6 11.9 9.3 62 3.8 W 24 43 13 23 1011.1 1011.1 0.2
18/07:00pm 17.8 15.2 9.4 58 4.4 NW 13 26 7 14 1010.1 1010.1 0.0
18/06:30pm 15.4 14.2 9.7 69 3.0 NNE 6 9 3 5 1009.8 1009.8 0.0
18/06:00pm 15.4 14.2 10.2 71 2.7 NE 7 9 4 5 1009.7 1009.7 0.0
18/05:30pm 17.6 17.6 9.8 60 4.1 CALM 0 0 0 0 1009.9 1009.9 0.0
18/05:00pm 19.3 17.0 7.4 46 6.1 N 9 11 5 6 1009.6 1009.6 0.0
18/04:30pm 21.5 19.3 9.4 46 6.5 NNW 11 30 6 16 1009.7 1009.7 0.0
18/04:00pm 21.5 20.1 10.9 51 5.8 N 9 11 5 6 1009.7 1009.7 0.0
18/03:30pm 22.9 21.1 10.7 46 6.7 NNE 11 15 6 8 1009.8 1009.8 0.0
18/03:00pm 23.1 20.4 8.8 40 7.6 N 13 19 7 10 1010.1 1010.1 0.0
18/02:30pm 23.4 20.5 8.3 38 8.0 N 13 17 7 9 1010.3 1010.3 0.0
18/02:00pm 23.7 20.6 7.3 35 8.6 NNE 13 20 7 11 1010.6 1010.6 0.0
18/01:30pm 22.5 21.1 10.9 48 6.4 ESE 9 13 5 7 1011.0 1011.0 0.0
18/01:00pm 22.0 20.3 11.1 50 6.0 ESE 11 15 6 8 1011.6 1011.6 0.0
18/12:30pm 21.6 19.9 12.5 56 5.2 SSE 13 15 7 8 1012.1 1012.1 0.0
18/12:00pm 22.0 20.8 11.7 52 5.8 SSW 9 11 5 6 1012.9 1012.9 0.0
18/11:30am 21.5 21.0 12.1 55 5.3 WSW 6 11 3 6 1013.8 1013.8 0.0
18/11:00am 19.3 19.2 12.1 63 4.0 WNW 4 7 2 4 1014.7 1014.7 0.0
18/10:30am 19.0 18.4 11.8 63 4.0 W 6 7 3 4 1015.3 1015.3 0.0
18/10:00am 17.0 16.4 11.7 71 2.9 N 6 9 3 5 1015.7 1015.7 0.0
18/09:30am 15.1 15.1 11.1 77 2.1 N 2 9 1 5 1016.0 1016.0 0.0
18/09:00am 13.3 13.2 10.7 84 1.4 NNE 2 6 1 3 1016.3 1016.3 0.2
18/08:30am 11.0 10.0 10.2 95 0.4 NNE 6 9 3 5 1016.6 1016.6 0.2
18/08:00am 8.7 8.4 8.6 99 0.0 CALM 0 0 0 0 1016.6 1016.6 0.2
18/07:30am 6.7 5.9 6.6 99 0.0 CALM 0 7 0 4 1016.6 1016.6 0.2
18/07:29am 7.1 6.4 7.0 99 0.0 CALM 0 6 0 3 1016.6 1016.6 0.2
18/07:00am 5.5 4.5 5.4 99 0.0 CALM 0 0 0 0 1016.4 1016.4 0.2

Other Formats:

Comma delimited format used in spreadsheet applications
http://www.bom.gov.au/fwo/IDN60801/IDN60801.95784.axf

JavaScript Object Notation format (JSON) in row-major order
http://www.bom.gov.au/fwo/IDN60801/IDN60801.95784.json